createdAt,value
2023-03-07T00:00:49.824Z,18.05
2023-03-07T00:03:39.937Z,18.50
2023-03-07T00:06:32.012Z,21.70
2023-03-07T00:09:22.137Z,20.43
2023-03-07T00:12:12.304Z,22.20
2023-03-07T00:15:02.305Z,18.70
2023-03-07T00:17:52.092Z,18.92
2023-03-07T00:20:42.440Z,19.17
2023-03-07T00:23:35.563Z,21.67
2023-03-07T00:26:26.704Z,20.23
2023-03-07T00:29:19.024Z,18.70
2023-03-07T00:32:09.411Z,22.10
2023-03-07T00:34:59.792Z,21.77
2023-03-07T00:37:50.674Z,21.05
2023-03-07T00:40:44.877Z,18.92
2023-03-07T00:43:37.407Z,19.63
2023-03-07T00:46:29.103Z,19.02
2023-03-07T00:49:20.926Z,19.52
2023-03-07T00:52:11.215Z,21.08
2023-03-07T00:55:01.417Z,17.10
2023-03-07T00:57:55.154Z,16.95
2023-03-07T01:00:44.842Z,19.75
2023-03-07T01:03:37.416Z,16.23
2023-03-07T01:06:33.013Z,19.13
2023-03-07T01:09:24.159Z,21.60
2023-03-07T01:12:17.135Z,17.08
2023-03-07T01:15:10.868Z,16.42
2023-03-07T01:18:01.031Z,16.65
2023-03-07T01:20:52.812Z,20.30
2023-03-07T01:23:41.975Z,17.55
2023-03-07T01:26:34.813Z,14.60
2023-03-07T01:29:24.614Z,17.27
2023-03-07T01:32:17.864Z,17.88
2023-03-07T01:35:08.084Z,17.65
2023-03-07T01:38:03.529Z,18.67
2023-03-07T01:40:56.446Z,19.02
2023-03-07T01:43:46.877Z,20.88
2023-03-07T01:46:48.729Z,17.70
2023-03-07T01:49:43.473Z,18.52
2023-03-07T01:52:38.018Z,16.80
2023-03-07T01:55:35.327Z,17.55
2023-03-07T01:58:34.187Z,15.43
2023-03-07T02:01:24.399Z,17.63
2023-03-07T02:04:20.527Z,17.38
2023-03-07T02:07:13.080Z,17.70
2023-03-07T02:10:06.720Z,23.45
2023-03-07T02:12:56.585Z,16.50
2023-03-07T02:15:52.613Z,16.15
2023-03-07T02:18:48.726Z,16.90
2023-03-07T02:21:47.427Z,15.75
2023-03-07T02:24:47.211Z,16.90
2023-03-07T02:27:43.108Z,14.57
2023-03-07T02:30:33.578Z,16.80
2023-03-07T02:33:26.262Z,17.55
2023-03-07T02:36:27.260Z,19.60
2023-03-07T02:39:37.912Z,20.25
2023-03-07T02:42:33.306Z,15.40
2023-03-07T02:45:29.259Z,21.70
2023-03-07T02:48:21.848Z,18.95
2023-03-07T02:51:13.540Z,17.67
2023-03-07T02:54:06.186Z,19.13
2023-03-07T02:56:59.802Z,16.38
2023-03-07T03:02:41.623Z,15.55
2023-03-07T03:05:36.864Z,14.80
2023-03-07T03:08:27.666Z,15.07
2023-03-07T03:11:19.596Z,16.30
2023-03-07T03:14:09.221Z,16.92
2023-03-07T03:17:00.039Z,14.65
2023-03-07T03:19:50.945Z,16.13
2023-03-07T03:22:45.110Z,15.77
2023-03-07T03:25:35.080Z,17.10
2023-03-07T03:28:26.266Z,15.80
2023-03-07T03:31:18.596Z,16.35
2023-03-07T03:34:08.236Z,17.50
2023-03-07T03:37:00.502Z,14.73
2023-03-07T03:39:54.432Z,18.00
2023-03-07T03:42:46.601Z,15.57
2023-03-07T03:45:37.983Z,15.77
2023-03-07T03:48:31.178Z,16.25
2023-03-07T03:51:21.690Z,17.20
2023-03-07T03:54:15.199Z,17.20
2023-03-07T03:57:07.250Z,15.77
2023-03-07T03:59:58.237Z,31.23
2023-03-07T04:02:48.540Z,15.45
2023-03-07T04:05:40.988Z,21.57
2023-03-07T04:08:31.968Z,22.85
2023-03-07T04:11:25.164Z,13.77
2023-03-07T04:17:05.800Z,14.43
2023-03-07T04:19:56.456Z,14.02
2023-03-07T04:22:47.320Z,15.63
2023-03-07T04:25:37.753Z,15.52
2023-03-07T04:28:47.094Z,18.85
2023-03-07T04:31:41.451Z,17.85
2023-03-07T04:34:32.384Z,15.30
2023-03-07T04:37:24.610Z,17.60
2023-03-07T04:40:15.486Z,18.83
2023-03-07T04:43:06.733Z,18.80
2023-03-07T04:46:00.715Z,18.10
2023-03-07T04:48:52.089Z,16.58
2023-03-07T04:51:44.029Z,16.15
2023-03-07T04:54:39.723Z,20.45
2023-03-07T04:57:30.672Z,17.45
2023-03-07T05:00:23.062Z,18.42
2023-03-07T05:03:18.301Z,15.30
2023-03-07T05:06:11.349Z,19.23
2023-03-07T05:09:02.034Z,17.45
2023-03-07T05:11:53.690Z,16.98
2023-03-07T05:14:47.307Z,17.90
2023-03-07T05:17:37.672Z,16.33
2023-03-07T05:20:30.488Z,17.17
2023-03-07T05:23:21.683Z,18.77
2023-03-07T05:26:13.849Z,20.92
2023-03-07T05:29:05.394Z,16.67
2023-03-07T05:31:55.550Z,21.95
2023-03-07T05:34:47.943Z,21.38
2023-03-07T05:37:41.109Z,19.48
2023-03-07T05:40:30.720Z,19.33
2023-03-07T05:43:21.246Z,20.05
2023-03-07T05:46:11.235Z,18.58
2023-03-07T05:49:02.162Z,17.98
2023-03-07T05:51:53.843Z,19.45
2023-03-07T05:54:46.817Z,19.90
2023-03-07T05:57:37.433Z,18.60
2023-03-07T06:00:27.623Z,20.55
2023-03-07T06:03:23.998Z,20.67
2023-03-07T06:06:14.743Z,21.65
2023-03-07T06:09:07.702Z,20.52
2023-03-07T06:12:00.213Z,19.73
2023-03-07T06:14:50.272Z,22.83
2023-03-07T06:17:41.378Z,21.02
2023-03-07T06:20:31.855Z,21.05
2023-03-07T06:23:23.149Z,24.33
2023-03-07T06:26:14.791Z,25.70
2023-03-07T06:29:11.186Z,19.05
2023-03-07T06:32:02.998Z,24.80
2023-03-07T06:34:52.890Z,23.48
2023-03-07T06:37:44.193Z,25.55
2023-03-07T06:40:33.631Z,21.25
2023-03-07T06:43:23.921Z,27.75
2023-03-07T06:46:18.455Z,24.15
2023-03-07T06:51:59.335Z,19.58
2023-03-07T06:54:50.429Z,22.27
2023-03-07T06:57:44.396Z,18.35
2023-03-07T07:00:35.028Z,20.77
2023-03-07T07:03:30.089Z,21.02
2023-03-07T07:06:20.069Z,18.90
2023-03-07T07:09:14.716Z,20.67
2023-03-07T07:12:05.634Z,21.80
2023-03-07T07:14:54.856Z,19.98
2023-03-07T07:17:42.812Z,19.10
2023-03-07T07:20:32.107Z,20.40
2023-03-07T07:23:21.109Z,20.83
2023-03-07T07:26:09.646Z,17.38
2023-03-07T07:28:57.228Z,23.95
2023-03-07T07:31:45.725Z,29.05
2023-03-07T07:34:33.955Z,23.73
2023-03-07T07:37:22.716Z,19.77
2023-03-07T07:40:11.734Z,18.20
2023-03-07T07:42:59.040Z,18.98
2023-03-07T07:45:53.393Z,19.98
2023-03-07T07:48:41.373Z,18.30
2023-03-07T07:51:28.249Z,20.48
2023-03-07T07:54:17.529Z,19.05
2023-03-07T07:57:05.177Z,18.80
2023-03-07T07:59:52.664Z,17.67
2023-03-07T08:02:39.804Z,15.57
2023-03-07T08:05:26.815Z,18.30
2023-03-07T08:08:13.825Z,15.73
2023-03-07T08:11:02.457Z,15.82
2023-03-07T08:13:49.423Z,14.00
2023-03-07T08:16:36.949Z,14.80
2023-03-07T08:19:24.035Z,18.23
2023-03-07T08:22:10.937Z,16.90
2023-03-07T08:24:58.209Z,15.10
2023-03-07T08:27:47.137Z,15.77
2023-03-07T08:30:37.134Z,15.07
2023-03-07T08:33:24.059Z,20.70
2023-03-07T08:36:11.647Z,11.68
2023-03-07T08:38:59.066Z,16.52
2023-03-07T08:41:46.102Z,12.90
2023-03-07T08:44:34.548Z,12.43
2023-03-07T08:47:21.891Z,12.95
2023-03-07T08:50:10.880Z,13.23
2023-03-07T08:52:59.110Z,13.93
2023-03-07T08:55:46.036Z,15.02
2023-03-07T08:58:33.348Z,15.45
2023-03-07T09:01:22.087Z,15.90
2023-03-07T09:04:09.066Z,14.73
2023-03-07T09:06:57.003Z,13.02
2023-03-07T09:09:44.202Z,15.45
2023-03-07T09:12:31.552Z,16.08
2023-03-07T09:15:18.707Z,15.48
2023-03-07T09:18:07.124Z,15.40
2023-03-07T09:20:54.446Z,16.75
2023-03-07T09:23:43.436Z,15.43
2023-03-07T09:26:30.393Z,15.88
2023-03-07T09:29:18.400Z,11.43
2023-03-07T09:32:06.001Z,17.55
2023-03-07T09:34:55.537Z,15.20
2023-03-07T09:37:42.416Z,13.10
2023-03-07T09:40:30.249Z,15.68
2023-03-07T09:43:21.487Z,14.25
2023-03-07T09:46:39.104Z,15.93
2023-03-07T09:49:34.177Z,19.42
2023-03-07T09:52:27.133Z,16.10
2023-03-07T09:55:19.088Z,13.75
2023-03-07T09:58:16.250Z,15.60
2023-03-07T10:01:04.153Z,14.20
2023-03-07T10:03:57.831Z,15.10
2023-03-07T10:06:47.714Z,20.02
2023-03-07T10:09:36.595Z,13.90
2023-03-07T10:12:43.243Z,15.85
2023-03-07T10:15:45.770Z,14.52
2023-03-07T10:18:45.201Z,14.20
2023-03-07T10:21:40.486Z,17.00
2023-03-07T10:24:43.529Z,13.02
2023-03-07T10:27:33.695Z,14.80
2023-03-07T10:30:21.993Z,14.95
2023-03-07T10:33:18.818Z,14.77
2023-03-07T10:36:10.278Z,20.95
2023-03-07T10:39:03.977Z,16.98
2023-03-07T10:41:52.401Z,15.75
2023-03-07T10:44:39.909Z,14.88
2023-03-07T10:47:28.986Z,16.20
2023-03-07T10:50:27.559Z,16.02
2023-03-07T10:53:25.420Z,13.60
2023-03-07T10:56:15.443Z,17.40
2023-03-07T10:59:06.161Z,13.73
2023-03-07T11:01:58.019Z,15.60
2023-03-07T11:04:47.651Z,15.93
2023-03-07T11:07:36.892Z,15.50
2023-03-07T11:10:33.434Z,16.02
2023-03-07T11:13:22.573Z,15.65
2023-03-07T11:16:20.423Z,17.88
2023-03-07T11:19:29.132Z,14.90
2023-03-07T11:22:20.882Z,14.05
2023-03-07T11:25:19.137Z,15.15
2023-03-07T11:28:24.221Z,14.73
2023-03-07T11:31:24.739Z,16.80
2023-03-07T11:34:29.298Z,17.98
2023-03-07T11:37:28.096Z,14.57
2023-03-07T11:40:24.568Z,14.15
2023-03-07T11:43:20.816Z,16.13
2023-03-07T11:46:13.279Z,14.95
2023-03-07T11:49:20.141Z,15.93
2023-03-07T11:52:30.643Z,17.88
2023-03-07T11:55:28.344Z,15.27
2023-03-07T11:58:32.283Z,15.63
2023-03-07T12:01:31.531Z,15.55
2023-03-07T12:04:37.895Z,15.73
2023-03-07T12:07:51.510Z,16.55
2023-03-07T12:10:38.615Z,14.70
2023-03-07T12:13:38.519Z,15.30
2023-03-07T12:16:32.428Z,15.02
2023-03-07T12:19:38.301Z,17.98
2023-03-07T12:22:30.350Z,16.40
2023-03-07T12:25:26.654Z,12.68
2023-03-07T12:28:21.638Z,17.10
2023-03-07T12:31:14.177Z,13.82
2023-03-07T12:34:05.389Z,14.18
2023-03-07T12:36:58.369Z,16.08
2023-03-07T12:39:51.639Z,16.98
2023-03-07T12:42:43.807Z,13.95
2023-03-07T12:45:40.719Z,17.10
2023-03-07T12:48:38.977Z,13.95
2023-03-07T12:51:33.075Z,16.02
2023-03-07T12:54:27.477Z,14.15
2023-03-07T12:57:20.883Z,13.40
2023-03-07T13:00:14.671Z,14.25
2023-03-07T13:03:06.813Z,15.75
2023-03-07T13:05:54.986Z,12.75
2023-03-07T13:08:48.994Z,14.52
2023-03-07T13:12:13.059Z,13.73
2023-03-07T13:15:00.979Z,12.63
2023-03-07T13:18:03.404Z,15.82
2023-03-07T13:21:10.647Z,11.65
2023-03-07T13:24:27.933Z,15.02
2023-03-07T13:27:19.587Z,14.13
2023-03-07T13:30:20.742Z,14.52
2023-03-07T13:33:28.218Z,15.80
2023-03-07T13:36:35.471Z,11.77
2023-03-07T13:39:38.308Z,14.50
2023-03-07T13:42:49.904Z,16.73
2023-03-07T13:45:49.242Z,14.32
2023-03-07T13:49:06.690Z,12.23
2023-03-07T13:52:08.980Z,12.57
2023-03-07T13:54:57.852Z,15.10
2023-03-07T13:57:45.835Z,11.93
2023-03-07T14:00:43.104Z,15.23
2023-03-07T14:03:34.867Z,15.18
2023-03-07T14:06:27.606Z,10.05
2023-03-07T14:09:23.708Z,15.30
2023-03-07T14:12:23.525Z,14.68
2023-03-07T14:15:24.502Z,13.82
2023-03-07T14:18:26.923Z,14.85
2023-03-07T14:21:21.563Z,16.07
2023-03-07T14:24:25.748Z,14.20
2023-03-07T14:27:16.664Z,14.75
2023-03-07T14:30:04.179Z,12.75
2023-03-07T14:32:54.853Z,14.10
2023-03-07T14:35:45.401Z,13.40
2023-03-07T14:38:34.429Z,12.32
2023-03-07T14:41:36.814Z,15.02
2023-03-07T14:44:40.898Z,15.90
2023-03-07T14:47:44.327Z,11.98
2023-03-07T14:50:34.254Z,15.38
2023-03-07T14:53:25.416Z,16.42
2023-03-07T14:56:20.446Z,14.18
2023-03-07T14:59:14.206Z,14.75
2023-03-07T15:02:17.953Z,15.32
2023-03-07T15:05:05.335Z,13.77
2023-03-07T15:07:54.892Z,17.42
2023-03-07T15:10:46.052Z,16.05
2023-03-07T15:13:38.253Z,13.63
2023-03-07T15:16:30.355Z,12.85
2023-03-07T15:19:22.224Z,14.75
2023-03-07T15:22:16.950Z,14.57
2023-03-07T15:25:04.623Z,15.52
2023-03-07T15:28:02.249Z,13.10
2023-03-07T15:30:53.411Z,14.05
2023-03-07T15:33:40.805Z,12.43
2023-03-07T15:36:28.384Z,12.60
2023-03-07T15:39:29.213Z,10.70
2023-03-07T15:42:22.578Z,13.27
2023-03-07T15:45:29.981Z,13.90
2023-03-07T15:48:26.848Z,14.57
2023-03-07T15:51:17.103Z,16.77
2023-03-07T15:54:17.164Z,14.30
2023-03-07T15:57:07.094Z,13.35
2023-03-07T15:59:59.052Z,11.90
2023-03-07T16:02:48.754Z,14.15
2023-03-07T16:05:39.811Z,15.23
2023-03-07T16:08:27.767Z,13.35
2023-03-07T16:11:15.492Z,14.18
2023-03-07T16:14:02.847Z,12.38
2023-03-07T16:16:50.760Z,16.27
2023-03-07T16:19:39.488Z,13.60
2023-03-07T16:22:26.910Z,17.73
2023-03-07T16:25:15.848Z,14.77
2023-03-07T16:28:04.034Z,15.63
2023-03-07T16:30:51.308Z,13.43
2023-03-07T16:33:38.569Z,14.27
2023-03-07T16:36:27.246Z,13.38
2023-03-07T16:39:14.796Z,12.60
2023-03-07T16:42:02.478Z,16.10
2023-03-07T16:44:51.150Z,17.05
2023-03-07T16:47:38.147Z,15.15
2023-03-07T16:50:27.661Z,13.95
2023-03-07T16:53:16.841Z,14.50
2023-03-07T16:56:04.164Z,15.68
2023-03-07T16:58:51.037Z,19.63
2023-03-07T17:01:39.278Z,14.45
2023-03-07T17:04:26.602Z,13.95
2023-03-07T17:07:18.221Z,15.25
2023-03-07T17:10:06.973Z,15.43
2023-03-07T17:12:56.221Z,13.80
2023-03-07T17:15:43.298Z,17.15
2023-03-07T17:18:33.989Z,18.63
2023-03-07T17:21:23.198Z,14.48
2023-03-07T17:24:10.436Z,14.88
2023-03-07T17:27:03.730Z,17.50
2023-03-07T17:32:39.639Z,17.13
2023-03-07T17:35:28.423Z,19.73
2023-03-07T17:38:15.331Z,16.48
2023-03-07T17:41:02.674Z,17.08
2023-03-07T17:43:51.669Z,21.58
2023-03-07T17:46:38.874Z,18.38
2023-03-07T17:49:27.284Z,15.52
2023-03-07T17:52:16.092Z,16.83
2023-03-07T17:55:03.460Z,18.30
2023-03-07T17:57:50.702Z,17.45
2023-03-07T18:00:40.253Z,19.52
2023-03-07T18:03:27.350Z,14.80
2023-03-07T18:06:14.119Z,18.10
2023-03-07T18:09:01.698Z,21.67
2023-03-07T18:11:48.821Z,18.40
2023-03-07T18:14:36.201Z,18.08
2023-03-07T18:17:24.635Z,18.52
2023-03-07T18:20:13.427Z,18.98
2023-03-07T18:23:00.845Z,21.75
2023-03-07T18:25:47.861Z,22.70
2023-03-07T18:28:36.063Z,19.80
2023-03-07T18:31:28.386Z,18.73
2023-03-07T18:34:16.810Z,18.95
2023-03-07T18:37:04.024Z,25.25
2023-03-07T18:39:51.192Z,25.52
2023-03-07T18:42:39.369Z,24.90
2023-03-07T18:45:28.662Z,24.27
2023-03-07T18:48:15.975Z,19.80
2023-03-07T18:51:06.501Z,20.60
2023-03-07T18:53:53.943Z,23.58
2023-03-07T18:56:42.882Z,24.80
2023-03-07T18:59:29.925Z,22.10
2023-03-07T19:02:16.710Z,21.63
2023-03-07T19:05:03.678Z,26.77
2023-03-07T19:07:52.320Z,24.00
2023-03-07T19:10:40.531Z,19.92
2023-03-07T19:13:27.978Z,23.27
2023-03-07T19:16:17.839Z,23.60
2023-03-07T19:19:05.428Z,22.42
2023-03-07T19:21:53.152Z,20.38
2023-03-07T19:24:42.124Z,22.08
2023-03-07T19:27:32.334Z,19.73
2023-03-07T19:30:21.256Z,27.13
2023-03-07T19:33:09.102Z,22.38
2023-03-07T19:36:06.431Z,23.08
2023-03-07T19:38:56.618Z,19.65
2023-03-07T19:41:48.102Z,22.60
2023-03-07T19:44:35.949Z,23.27
2023-03-07T19:47:23.333Z,25.13
2023-03-07T19:50:13.052Z,19.13
2023-03-07T19:53:03.139Z,20.45
2023-03-07T19:55:50.646Z,21.92
2023-03-07T19:58:40.339Z,19.73
2023-03-07T20:01:29.850Z,18.77
2023-03-07T20:04:18.102Z,19.92
2023-03-07T20:07:05.562Z,18.88
2023-03-07T20:09:53.930Z,20.38
2023-03-07T20:12:41.280Z,22.13
2023-03-07T20:15:30.834Z,23.10
2023-03-07T20:18:18.565Z,17.83
2023-03-07T20:21:08.015Z,16.50
2023-03-07T20:23:56.051Z,22.25
2023-03-07T20:26:44.129Z,18.63
2023-03-07T20:29:31.581Z,16.95
2023-03-07T20:32:20.922Z,16.63
2023-03-07T20:35:08.957Z,17.25
2023-03-07T20:37:57.147Z,19.02
2023-03-07T20:40:44.981Z,17.95
2023-03-07T20:43:33.137Z,21.00
2023-03-07T20:46:23.240Z,16.67
2023-03-07T20:49:15.630Z,17.40
2023-03-07T20:52:02.803Z,16.95
2023-03-07T20:54:49.773Z,18.35
2023-03-07T20:57:36.992Z,19.50
2023-03-07T21:00:25.957Z,17.05
2023-03-07T21:03:13.906Z,17.15
2023-03-07T21:06:04.260Z,18.27
2023-03-07T21:08:51.206Z,19.92
2023-03-07T21:11:40.215Z,17.08
2023-03-07T21:14:28.993Z,18.95
2023-03-07T21:17:16.409Z,17.92
2023-03-07T21:20:05.825Z,18.33
2023-03-07T21:22:54.756Z,18.45
2023-03-07T21:25:42.265Z,20.05
2023-03-07T21:28:30.158Z,16.85
2023-03-07T21:31:20.096Z,17.80
2023-03-07T21:34:09.612Z,17.50
2023-03-07T21:36:57.314Z,19.98
2023-03-07T21:39:46.355Z,21.48
2023-03-07T21:42:34.855Z,19.83
2023-03-07T21:45:23.946Z,18.75
2023-03-07T21:48:13.780Z,18.70
2023-03-07T21:51:01.959Z,19.75
2023-03-07T21:53:49.713Z,21.50
2023-03-07T21:56:38.714Z,21.88
2023-03-07T21:59:28.441Z,18.67
2023-03-07T22:02:16.077Z,19.63
2023-03-07T22:05:03.381Z,20.85
2023-03-07T22:07:53.233Z,19.10
2023-03-07T22:10:40.933Z,20.60
2023-03-07T22:13:30.463Z,20.02
2023-03-07T22:16:21.959Z,21.20
2023-03-07T22:19:09.868Z,19.52
2023-03-07T22:21:57.247Z,17.38
2023-03-07T22:24:45.282Z,19.08
2023-03-07T22:27:33.633Z,21.20
2023-03-07T22:30:22.817Z,18.08
2023-03-07T22:33:10.554Z,21.05
2023-03-07T22:35:59.863Z,18.75
2023-03-07T22:38:48.822Z,18.52
2023-03-07T22:41:37.043Z,18.67
2023-03-07T22:44:24.875Z,20.73
2023-03-07T22:47:13.976Z,23.45
2023-03-07T22:50:01.441Z,19.38
2023-03-07T22:52:49.325Z,19.90
2023-03-07T22:55:41.668Z,20.42
2023-03-07T22:58:30.590Z,30.37
2023-03-07T23:01:20.744Z,22.00
2023-03-07T23:04:11.294Z,20.42
2023-03-07T23:06:58.822Z,18.67
2023-03-07T23:09:46.178Z,20.65
2023-03-07T23:12:33.799Z,22.98
2023-03-07T23:15:21.698Z,22.05
2023-03-07T23:18:10.019Z,23.20
2023-03-07T23:20:59.044Z,18.58
2023-03-07T23:23:48.181Z,20.23
2023-03-07T23:26:38.480Z,21.15
2023-03-07T23:29:25.829Z,19.52
2023-03-07T23:32:13.237Z,20.80
2023-03-07T23:35:01.179Z,18.65
2023-03-07T23:37:50.944Z,20.17
2023-03-07T23:40:38.688Z,19.75
2023-03-07T23:43:26.268Z,18.58
2023-03-07T23:46:13.847Z,18.35
2023-03-07T23:49:02.553Z,20.10
2023-03-07T23:51:50.071Z,24.67
2023-03-07T23:54:38.697Z,17.48
2023-03-07T23:57:26.280Z,19.45
